createdAt,value
2019-05-17T00:01:46.931Z,9.98
2019-05-17T00:04:16.634Z,9.97
2019-05-17T00:06:47.457Z,9.91
2019-05-17T00:09:17.420Z,9.90
2019-05-17T00:11:47.217Z,10.00
2019-05-17T00:14:16.721Z,9.99
2019-05-17T00:16:47.014Z,9.95
2019-05-17T00:19:16.931Z,10.03
2019-05-17T00:21:47.426Z,9.97
2019-05-17T00:24:15.327Z,9.95
2019-05-17T00:26:43.610Z,9.90
2019-05-17T00:29:11.887Z,9.94
2019-05-17T00:31:40.171Z,9.91
2019-05-17T00:34:08.466Z,9.93
2019-05-17T00:36:37.569Z,10.00
2019-05-17T00:39:07.417Z,10.01
2019-05-17T00:41:37.482Z,9.99
2019-05-17T00:44:06.416Z,9.97
2019-05-17T00:46:37.089Z,10.02
2019-05-17T00:49:06.496Z,10.01
2019-05-17T00:51:36.964Z,10.01
2019-05-17T00:54:06.777Z,9.93
2019-05-17T00:56:37.043Z,9.92
2019-05-17T00:59:07.283Z,10.05
2019-05-17T01:01:36.505Z,10.08
2019-05-17T01:04:06.918Z,10.08
2019-05-17T01:06:34.801Z,10.09
2019-05-17T01:09:04.169Z,10.08
2019-05-17T01:11:32.549Z,10.05
2019-05-17T01:14:01.019Z,10.01
2019-05-17T01:16:29.308Z,10.02
2019-05-17T01:18:57.586Z,9.91
2019-05-17T01:21:26.321Z,9.99
2019-05-17T01:23:56.233Z,9.97
2019-05-17T01:26:26.582Z,10.04
2019-05-17T01:28:54.610Z,10.05
2019-05-17T01:31:22.897Z,10.14
2019-05-17T01:33:51.192Z,10.14
2019-05-17T01:36:19.478Z,10.00
2019-05-17T01:38:47.763Z,10.04
2019-05-17T01:41:17.412Z,10.01
2019-05-17T01:43:47.431Z,10.03
2019-05-17T01:46:17.185Z,10.07
2019-05-17T01:48:47.142Z,10.00
2019-05-17T01:51:16.981Z,9.99
2019-05-17T01:53:46.988Z,10.00
2019-05-17T01:56:16.921Z,9.87
2019-05-17T01:58:47.041Z,9.85
2019-05-17T02:01:17.018Z,9.85
2019-05-17T02:03:46.904Z,9.85
2019-05-17T02:06:16.519Z,9.98
2019-05-17T02:08:47.350Z,10.00
2019-05-17T02:11:18.191Z,10.05
2019-05-17T02:13:46.715Z,9.94
2019-05-17T02:16:16.552Z,9.90
2019-05-17T02:18:46.616Z,9.93
2019-05-17T02:21:16.809Z,9.87
2019-05-17T02:23:46.910Z,9.95
2019-05-17T02:26:17.348Z,9.99
2019-05-17T02:28:45.323Z,10.01
2019-05-17T02:31:13.605Z,9.99
2019-05-17T02:33:43.025Z,9.95
2019-05-17T02:36:14.193Z,9.93
2019-05-17T02:38:43.633Z,9.80
2019-05-17T02:41:14.152Z,9.88
2019-05-17T02:43:43.397Z,9.96
2019-05-17T02:46:13.685Z,9.93
2019-05-17T02:48:42.729Z,9.97
2019-05-17T02:51:13.147Z,10.00
2019-05-17T02:53:43.003Z,9.85
2019-05-17T02:56:13.422Z,9.87
2019-05-17T02:58:43.925Z,9.86
2019-05-17T03:01:12.696Z,9.81
2019-05-17T03:03:43.720Z,9.78
2019-05-17T03:06:13.675Z,9.78
2019-05-17T03:08:42.932Z,9.81
2019-05-17T03:11:13.474Z,9.78
2019-05-17T03:13:43.345Z,9.81
2019-05-17T03:16:14.725Z,9.89
2019-05-17T03:18:43.832Z,9.89
2019-05-17T03:21:13.549Z,9.86
2019-05-17T03:23:43.579Z,9.82
2019-05-17T03:26:13.131Z,9.86
2019-05-17T03:28:42.651Z,9.86
2019-05-17T03:31:17.156Z,9.94
2019-05-17T03:33:45.999Z,9.93
2019-05-17T03:36:17.012Z,9.77
2019-05-17T03:38:43.226Z,9.89
2019-05-17T03:41:22.935Z,9.79
2019-05-17T03:43:44.227Z,9.74
2019-05-17T03:46:13.956Z,9.77
2019-05-17T03:48:43.509Z,9.77
2019-05-17T03:51:13.173Z,9.77
2019-05-17T03:53:44.158Z,9.72
2019-05-17T03:56:13.320Z,9.77
2019-05-17T03:59:03.990Z,9.88
2019-05-17T04:01:32.902Z,9.86
2019-05-17T04:04:02.866Z,9.87
2019-05-17T04:06:32.861Z,9.88
2019-05-17T04:09:03.610Z,9.92
2019-05-17T04:11:35.485Z,9.96
2019-05-17T04:14:02.960Z,9.95
2019-05-17T04:16:34.004Z,10.00
2019-05-17T04:19:03.027Z,9.93
2019-05-17T04:21:34.183Z,10.03
2019-05-17T04:24:03.214Z,10.00
2019-05-17T04:26:32.516Z,9.88
2019-05-17T04:29:03.527Z,9.95
2019-05-17T04:31:34.834Z,9.90
2019-05-17T04:34:02.918Z,9.98
2019-05-17T04:36:32.317Z,10.03
2019-05-17T04:39:02.494Z,9.95
2019-05-17T04:41:41.496Z,9.92
2019-05-17T04:44:02.661Z,9.96
2019-05-17T04:46:32.586Z,10.07
2019-05-17T04:49:03.054Z,10.04
2019-05-17T04:51:32.251Z,10.01
2019-05-17T04:54:03.259Z,9.95
2019-05-17T04:56:33.411Z,9.98
2019-05-17T04:59:03.397Z,10.08
2019-05-17T05:01:32.964Z,10.10
2019-05-17T05:04:03.654Z,10.06
2019-05-17T05:06:32.904Z,10.12
2019-05-17T05:09:02.616Z,10.07
2019-05-17T05:11:32.797Z,10.19
2019-05-17T05:14:02.848Z,10.24
2019-05-17T05:16:32.042Z,10.36
2019-05-17T05:19:03.015Z,10.29
2019-05-17T05:21:32.286Z,10.35
2019-05-17T05:24:02.541Z,10.28
2019-05-17T05:26:31.736Z,10.23
2019-05-17T05:29:02.244Z,10.26
2019-05-17T05:31:32.198Z,10.26
2019-05-17T05:34:01.864Z,10.33
2019-05-17T05:36:32.615Z,10.37
2019-05-17T05:39:02.309Z,10.31
2019-05-17T05:41:31.996Z,10.23
2019-05-17T05:44:01.940Z,10.23
2019-05-17T05:46:31.775Z,10.40
2019-05-17T05:49:01.839Z,10.49
2019-05-17T05:51:32.091Z,10.33
2019-05-17T05:54:01.591Z,10.36
2019-05-17T05:56:32.444Z,10.38
2019-05-17T05:59:02.672Z,10.47
2019-05-17T06:01:32.415Z,10.46
2019-05-17T06:04:02.517Z,10.46
2019-05-17T06:06:32.121Z,10.46
2019-05-17T06:09:02.562Z,10.46
2019-05-17T06:11:32.143Z,10.44
2019-05-17T06:14:01.584Z,10.38
2019-05-17T06:16:32.101Z,10.42
2019-05-17T06:19:02.191Z,10.54
2019-05-17T06:21:31.951Z,10.63
2019-05-17T06:24:02.416Z,10.35
2019-05-17T06:26:31.538Z,10.33
2019-05-17T06:29:02.585Z,10.46
2019-05-17T06:31:29.863Z,10.53
2019-05-17T06:33:58.143Z,10.44
2019-05-17T06:36:26.439Z,10.48
2019-05-17T06:38:54.747Z,10.62
2019-05-17T06:41:23.012Z,10.49
2019-05-17T06:43:52.427Z,10.66
2019-05-17T06:46:21.955Z,10.79
2019-05-17T06:48:52.852Z,10.78
2019-05-17T06:51:22.101Z,10.82
2019-05-17T06:53:52.400Z,10.78
2019-05-17T06:56:22.790Z,10.78
2019-05-17T06:58:50.443Z,10.90
2019-05-17T07:01:19.713Z,11.03
2019-05-17T07:03:49.561Z,11.00
2019-05-17T07:06:21.558Z,10.96
2019-05-17T07:08:49.628Z,10.91
2019-05-17T07:11:17.886Z,10.98
2019-05-17T07:13:46.180Z,11.05
2019-05-17T07:16:14.486Z,11.16
2019-05-17T07:18:49.430Z,11.07
2019-05-17T07:21:20.382Z,11.14
2019-05-17T07:23:49.805Z,11.24
2019-05-17T07:26:19.720Z,11.28
2019-05-17T07:28:49.804Z,11.22
2019-05-17T07:31:20.342Z,11.28
2019-05-17T07:33:50.357Z,11.29
2019-05-17T07:36:19.717Z,11.46
2019-05-17T07:38:50.345Z,11.47
2019-05-17T07:41:20.263Z,11.56
2019-05-17T07:43:49.773Z,11.45
2019-05-17T07:46:20.467Z,11.41
2019-05-17T07:48:49.751Z,11.45
2019-05-17T07:51:19.505Z,11.40
2019-05-17T07:53:49.508Z,11.49
2019-05-17T07:56:19.972Z,11.51
2019-05-17T07:58:49.473Z,11.52
2019-05-17T08:01:20.291Z,11.49
2019-05-17T08:03:50.102Z,11.53
2019-05-17T08:06:19.922Z,11.57
2019-05-17T08:08:50.175Z,11.68
2019-05-17T08:11:19.700Z,11.80
2019-05-17T08:13:50.270Z,11.85
2019-05-17T08:16:19.648Z,11.90
2019-05-17T08:18:49.677Z,12.05
2019-05-17T08:21:19.920Z,12.09
2019-05-17T08:23:50.646Z,11.93
2019-05-17T08:26:20.021Z,11.94
2019-05-17T08:28:49.904Z,12.13
2019-05-17T08:31:20.207Z,12.01
2019-05-17T08:33:49.804Z,12.02
2019-05-17T08:36:20.142Z,12.15
2019-05-17T08:38:50.181Z,12.13
2019-05-17T08:41:20.634Z,11.99
2019-05-17T08:43:51.164Z,12.13
2019-05-17T08:46:19.905Z,12.08
2019-05-17T08:48:49.501Z,12.18
2019-05-17T08:51:19.702Z,12.19
2019-05-17T08:53:49.296Z,12.26
2019-05-17T08:56:17.632Z,12.36
2019-05-17T08:58:46.395Z,12.33
2019-05-17T09:01:14.672Z,12.45
2019-05-17T09:03:42.992Z,12.45
2019-05-17T09:06:12.346Z,12.37
2019-05-17T09:08:41.109Z,12.33
2019-05-17T09:11:09.953Z,12.42
2019-05-17T09:13:40.105Z,12.46
2019-05-17T09:16:10.530Z,12.53
2019-05-17T09:18:39.437Z,12.66
2019-05-17T09:21:09.740Z,12.82
2019-05-17T09:23:39.670Z,13.00
2019-05-17T09:26:10.002Z,13.00
2019-05-17T09:28:39.446Z,13.16
2019-05-17T09:31:10.221Z,12.99
2019-05-17T09:33:37.769Z,13.28
2019-05-17T09:36:06.073Z,13.58
2019-05-17T09:38:34.388Z,13.65
2019-05-17T09:41:02.676Z,13.90
2019-05-17T09:43:30.951Z,13.81
2019-05-17T09:46:01.596Z,13.64
2019-05-17T09:48:30.711Z,13.84
2019-05-17T09:50:59.970Z,13.81
2019-05-17T09:53:30.660Z,13.76
2019-05-17T09:56:00.560Z,13.80
2019-05-17T09:58:29.936Z,13.92
2019-05-17T10:01:01.074Z,13.90
2019-05-17T10:03:30.519Z,14.08
2019-05-17T10:06:00.008Z,14.05
2019-05-17T10:08:28.434Z,14.10
2019-05-17T10:11:06.068Z,14.55
2019-05-17T10:13:26.700Z,14.43
2019-05-17T10:15:54.987Z,14.75
2019-05-17T10:18:23.252Z,15.01
2019-05-17T10:20:51.525Z,15.08
2019-05-17T10:23:19.843Z,15.13
2019-05-17T10:25:48.078Z,14.85
2019-05-17T10:28:16.360Z,14.57
2019-05-17T10:30:44.673Z,14.64
2019-05-17T10:33:12.949Z,14.63
2019-05-17T10:35:41.315Z,14.90
2019-05-17T10:38:10.439Z,15.03
2019-05-17T10:40:41.173Z,15.12
2019-05-17T10:43:10.208Z,15.36
2019-05-17T10:45:40.133Z,15.67
2019-05-17T10:48:10.231Z,15.74
2019-05-17T10:50:40.675Z,15.69
2019-05-17T10:53:10.005Z,15.77
2019-05-17T10:55:39.693Z,15.75
2019-05-17T10:58:09.927Z,15.36
2019-05-17T11:00:40.947Z,15.40
2019-05-17T11:03:09.778Z,15.54
2019-05-17T11:05:40.321Z,15.69
2019-05-17T11:08:10.648Z,15.69
2019-05-17T11:10:39.356Z,15.63
2019-05-17T11:13:07.923Z,15.59
2019-05-17T11:15:36.200Z,15.89
2019-05-17T11:18:05.343Z,16.03
2019-05-17T11:20:33.610Z,16.13
2019-05-17T11:23:01.930Z,15.95
2019-05-17T11:25:30.195Z,15.91
2019-05-17T11:27:58.470Z,15.86
2019-05-17T11:30:26.770Z,15.84
2019-05-17T11:32:55.022Z,15.66
2019-05-17T11:35:24.776Z,15.46
2019-05-17T11:37:54.823Z,15.23
2019-05-17T11:40:23.278Z,15.37
2019-05-17T11:42:51.544Z,15.54
2019-05-17T11:45:27.925Z,15.48
2019-05-17T11:47:49.884Z,15.47
2019-05-17T11:50:18.238Z,15.53
2019-05-17T11:52:46.522Z,15.76
2019-05-17T11:55:14.853Z,16.08
2019-05-17T11:57:43.150Z,16.22
2019-05-17T12:00:12.112Z,16.27
2019-05-17T12:02:40.398Z,15.99
2019-05-17T12:05:08.740Z,15.91
2019-05-17T12:07:37.028Z,16.01
2019-05-17T12:10:06.775Z,16.21
2019-05-17T12:12:35.070Z,16.37
2019-05-17T12:15:04.425Z,16.56
2019-05-17T12:17:32.717Z,16.36
2019-05-17T12:20:01.045Z,16.16
2019-05-17T12:22:29.360Z,16.18
2019-05-17T12:24:57.631Z,16.09
2019-05-17T12:27:25.904Z,16.03
2019-05-17T12:29:54.184Z,15.90
2019-05-17T12:32:22.475Z,15.89
2019-05-17T12:34:50.765Z,16.03
2019-05-17T12:37:19.134Z,16.14
2019-05-17T12:39:47.431Z,16.17
2019-05-17T12:42:15.715Z,16.04
2019-05-17T12:44:44.032Z,16.05
2019-05-17T12:47:12.351Z,15.95
2019-05-17T12:49:40.645Z,16.09
2019-05-17T12:52:08.931Z,16.20
2019-05-17T12:54:37.224Z,16.16
2019-05-17T12:57:05.509Z,16.28
2019-05-17T12:59:33.767Z,16.36
2019-05-17T13:02:02.162Z,16.58
2019-05-17T13:04:30.486Z,16.48
2019-05-17T13:06:58.774Z,16.55
2019-05-17T13:09:27.051Z,16.43
2019-05-17T13:11:55.316Z,16.19
2019-05-17T13:14:23.587Z,16.18
2019-05-17T13:16:51.919Z,16.24
2019-05-17T13:19:20.197Z,16.24
2019-05-17T13:21:48.479Z,16.31
2019-05-17T13:24:16.744Z,16.38
2019-05-17T13:26:45.030Z,16.61
2019-05-17T13:29:13.298Z,16.83
2019-05-17T13:31:41.586Z,16.93
2019-05-17T13:34:09.840Z,16.89
2019-05-17T13:36:38.090Z,16.74
2019-05-17T13:39:07.774Z,16.66
2019-05-17T13:41:36.029Z,16.62
2019-05-17T13:44:04.344Z,16.59
2019-05-17T13:46:33.711Z,16.63
2019-05-17T13:49:02.086Z,16.57
2019-05-17T13:51:30.520Z,16.48
2019-05-17T13:53:58.780Z,16.74
2019-05-17T13:56:27.057Z,17.41
2019-05-17T13:58:55.345Z,17.41
2019-05-17T14:01:23.597Z,17.37
2019-05-17T14:03:51.892Z,17.58
2019-05-17T14:06:20.148Z,17.47
2019-05-17T14:08:48.420Z,17.21
2019-05-17T14:11:16.701Z,17.07
2019-05-17T14:13:44.964Z,17.22
2019-05-17T14:16:13.241Z,17.45
2019-05-17T14:18:41.514Z,17.38
2019-05-17T14:21:09.793Z,17.44
2019-05-17T14:23:38.070Z,17.60
2019-05-17T14:26:06.343Z,17.76
2019-05-17T14:28:34.600Z,17.71
2019-05-17T14:31:02.899Z,17.59
2019-05-17T14:33:31.185Z,17.83
2019-05-17T14:35:59.437Z,17.75
2019-05-17T14:38:27.716Z,17.72
2019-05-17T14:41:11.451Z,17.69
2019-05-17T14:43:25.989Z,17.72
2019-05-17T14:45:54.261Z,17.99
2019-05-17T14:48:22.527Z,17.80
2019-05-17T14:50:50.802Z,17.72
2019-05-17T14:53:19.059Z,17.72
2019-05-17T14:55:47.364Z,17.64
2019-05-17T14:58:15.787Z,17.69
2019-05-17T15:00:44.069Z,17.56
2019-05-17T15:03:12.333Z,17.43
2019-05-17T15:05:40.609Z,17.42
2019-05-17T15:08:08.881Z,17.43
2019-05-17T15:10:37.169Z,17.29
2019-05-17T15:13:05.452Z,17.57
2019-05-17T15:15:33.712Z,17.91
2019-05-17T15:18:01.987Z,18.32
2019-05-17T15:20:30.250Z,18.46
2019-05-17T15:22:58.526Z,18.49
2019-05-17T15:25:26.813Z,18.35
2019-05-17T15:27:55.074Z,18.20
2019-05-17T15:30:23.339Z,17.92
2019-05-17T15:32:51.621Z,18.25
2019-05-17T15:35:19.882Z,18.29
2019-05-17T15:37:48.150Z,18.16
2019-05-17T15:40:16.484Z,17.92
2019-05-17T15:42:45.028Z,17.69
2019-05-17T15:45:13.386Z,17.56
2019-05-17T15:47:41.680Z,17.45
2019-05-17T15:50:10.899Z,17.58
2019-05-17T15:52:39.154Z,17.57
2019-05-17T15:55:07.718Z,17.28
2019-05-17T15:57:36.001Z,17.37
2019-05-17T16:00:06.684Z,17.56
2019-05-17T16:02:34.925Z,17.47
2019-05-17T16:05:03.457Z,17.44
2019-05-17T16:07:31.728Z,17.57
2019-05-17T16:09:59.993Z,17.55
2019-05-17T16:12:28.276Z,17.50
2019-05-17T16:14:56.531Z,17.64
2019-05-17T16:17:24.822Z,17.73
2019-05-17T16:19:53.102Z,17.64
2019-05-17T16:22:21.362Z,17.56
2019-05-17T16:24:49.631Z,17.50
2019-05-17T16:27:17.898Z,17.59
2019-05-17T16:29:46.177Z,17.53
2019-05-17T16:32:14.464Z,17.39
2019-05-17T16:34:42.756Z,17.17
2019-05-17T16:37:11.048Z,17.09
2019-05-17T16:39:39.329Z,17.20
2019-05-17T16:42:07.604Z,17.19
2019-05-17T16:44:35.909Z,17.07
2019-05-17T16:47:04.258Z,16.72
2019-05-17T16:49:32.537Z,16.55
2019-05-17T16:52:00.832Z,16.49
2019-05-17T16:54:29.107Z,16.57
2019-05-17T16:56:57.408Z,16.28
2019-05-17T16:59:25.686Z,16.12
2019-05-17T17:01:53.983Z,15.91
2019-05-17T17:04:22.262Z,15.91
2019-05-17T17:06:50.540Z,15.76
2019-05-17T17:09:18.813Z,15.59
2019-05-17T17:11:47.092Z,15.69
2019-05-17T17:14:15.363Z,15.48
2019-05-17T17:16:43.650Z,15.29
2019-05-17T17:19:13.577Z,15.18
2019-05-17T17:21:42.024Z,15.20
2019-05-17T17:24:10.301Z,15.08
2019-05-17T17:26:38.576Z,15.03
2019-05-17T17:29:06.851Z,15.03
2019-05-17T17:31:35.116Z,15.03
2019-05-17T17:34:03.398Z,15.03
2019-05-17T17:36:31.685Z,14.99
2019-05-17T17:38:59.958Z,15.10
2019-05-17T17:41:28.418Z,15.23
2019-05-17T17:43:58.970Z,15.27
2019-05-17T17:46:26.696Z,15.25
2019-05-17T17:48:55.065Z,15.14
2019-05-17T17:51:23.389Z,14.88
2019-05-17T17:53:51.653Z,14.91
2019-05-17T17:56:19.939Z,14.81
2019-05-17T17:58:48.248Z,14.88
2019-05-17T18:01:16.524Z,14.64
2019-05-17T18:03:45.201Z,14.62
2019-05-17T18:06:13.500Z,14.63
2019-05-17T18:08:41.775Z,14.59
2019-05-17T18:11:10.070Z,14.57
2019-05-17T18:13:38.357Z,14.56
2019-05-17T18:16:06.646Z,14.63
2019-05-17T18:18:34.936Z,14.60
2019-05-17T18:21:03.229Z,14.53
2019-05-17T18:23:31.511Z,14.42
2019-05-17T18:25:59.865Z,14.22
2019-05-17T18:28:28.163Z,14.16
2019-05-17T18:30:56.453Z,14.18
2019-05-17T18:33:24.732Z,14.08
2019-05-17T18:35:53.006Z,13.97
2019-05-17T18:38:23.408Z,13.97
2019-05-17T18:40:51.698Z,13.89
2019-05-17T18:43:19.978Z,13.70
2019-05-17T18:45:48.265Z,13.73
2019-05-17T18:48:16.589Z,13.67
2019-05-17T18:50:44.955Z,13.72
2019-05-17T18:53:16.984Z,13.75
2019-05-17T18:55:43.243Z,13.78
2019-05-17T18:58:11.533Z,13.72
2019-05-17T19:00:39.826Z,13.76
2019-05-17T19:03:08.090Z,13.72
2019-05-17T19:05:36.393Z,13.67
2019-05-17T19:08:04.655Z,13.67
2019-05-17T19:10:32.943Z,13.72
2019-05-17T19:13:01.239Z,13.58
2019-05-17T19:15:29.522Z,13.52
2019-05-17T19:17:57.817Z,13.44
2019-05-17T19:20:26.094Z,13.44
2019-05-17T19:22:54.441Z,13.28
2019-05-17T19:25:22.725Z,13.22
2019-05-17T19:27:51.012Z,13.30
2019-05-17T19:30:19.626Z,13.20
2019-05-17T19:32:47.916Z,13.14
2019-05-17T19:35:16.947Z,13.15
2019-05-17T19:37:45.224Z,13.13
2019-05-17T19:40:13.777Z,12.93
2019-05-17T19:42:42.060Z,12.90
2019-05-17T19:45:10.512Z,12.91
2019-05-17T19:47:38.797Z,12.97
2019-05-17T19:50:07.431Z,12.83
2019-05-17T19:52:35.698Z,12.85
2019-05-17T19:55:07.664Z,12.81
2019-05-17T19:57:36.380Z,12.80
2019-05-17T20:00:10.646Z,12.76
2019-05-17T20:02:38.927Z,12.78
2019-05-17T20:05:07.442Z,12.77
2019-05-17T20:07:38.694Z,12.71
2019-05-17T20:10:09.070Z,12.66
2019-05-17T20:12:37.368Z,12.53
2019-05-17T20:15:17.291Z,12.40
2019-05-17T20:17:37.706Z,12.21
2019-05-17T20:20:08.335Z,12.19
2019-05-17T20:22:36.615Z,12.19
2019-05-17T20:25:06.605Z,12.27
2019-05-17T20:27:34.951Z,12.31
2019-05-17T20:30:05.150Z,12.21
2019-05-17T20:32:33.468Z,12.15
2019-05-17T20:35:01.758Z,12.04
2019-05-17T20:37:30.054Z,11.99
2019-05-17T20:39:58.356Z,11.98
2019-05-17T20:42:26.653Z,12.01
2019-05-17T20:44:54.939Z,11.95
2019-05-17T20:47:23.303Z,12.03
2019-05-17T20:49:51.584Z,12.10
2019-05-17T20:52:19.892Z,12.12
2019-05-17T20:54:48.190Z,12.09
2019-05-17T20:57:16.467Z,12.04
2019-05-17T20:59:44.765Z,12.02
2019-05-17T21:02:13.038Z,12.09
2019-05-17T21:04:41.330Z,12.09
2019-05-17T21:07:09.629Z,12.17
2019-05-17T21:09:37.919Z,12.27
2019-05-17T21:12:06.220Z,12.17
2019-05-17T21:14:34.500Z,12.10
2019-05-17T21:17:02.800Z,12.18
2019-05-17T21:19:31.090Z,12.16
2019-05-17T21:21:59.389Z,12.09
2019-05-17T21:24:27.668Z,12.15
2019-05-17T21:26:55.959Z,12.12
2019-05-17T21:29:24.246Z,12.20
2019-05-17T21:31:52.604Z,12.26
2019-05-17T21:34:20.895Z,12.26
2019-05-17T21:36:49.169Z,12.32
2019-05-17T21:39:17.461Z,12.23
2019-05-17T21:41:45.755Z,12.23
2019-05-17T21:44:14.044Z,12.17
2019-05-17T21:46:42.316Z,12.15
2019-05-17T21:49:10.603Z,12.17
2019-05-17T21:51:38.898Z,12.20
2019-05-17T21:54:07.251Z,12.25
2019-05-17T21:56:35.551Z,12.27
2019-05-17T21:59:03.887Z,12.23
2019-05-17T22:01:33.665Z,12.30
2019-05-17T22:04:01.955Z,12.38
2019-05-17T22:06:30.244Z,12.30
2019-05-17T22:08:58.527Z,12.18
2019-05-17T22:11:26.819Z,12.18
2019-05-17T22:13:55.111Z,12.13
2019-05-17T22:16:23.400Z,12.18
2019-05-17T22:18:51.690Z,12.18
2019-05-17T22:21:19.978Z,12.17
2019-05-17T22:23:48.281Z,12.19
2019-05-17T22:26:16.540Z,12.27
2019-05-17T22:28:44.833Z,12.16
2019-05-17T22:31:13.117Z,12.11
2019-05-17T22:33:42.367Z,12.10
2019-05-17T22:36:10.662Z,12.01
2019-05-17T22:38:38.932Z,12.03
2019-05-17T22:41:07.212Z,12.01
2019-05-17T22:43:35.495Z,12.01
2019-05-17T22:46:03.770Z,11.90
2019-05-17T22:48:32.073Z,11.92
2019-05-17T22:51:00.354Z,11.84
2019-05-17T22:53:28.636Z,11.81
2019-05-17T22:55:56.953Z,11.72
2019-05-17T22:58:25.219Z,11.83
2019-05-17T23:00:53.500Z,11.80
2019-05-17T23:03:21.802Z,11.81
2019-05-17T23:05:50.153Z,11.85
2019-05-17T23:08:18.429Z,11.88
2019-05-17T23:10:46.713Z,11.83
2019-05-17T23:13:15.017Z,11.83
2019-05-17T23:16:02.061Z,11.84
2019-05-17T23:18:34.123Z,11.84
2019-05-17T23:21:02.665Z,11.79
2019-05-17T23:23:31.204Z,11.80
2019-05-17T23:25:59.497Z,11.81
2019-05-17T23:28:27.787Z,11.84
2019-05-17T23:30:56.066Z,11.93
2019-05-17T23:33:24.374Z,11.89
2019-05-17T23:35:52.653Z,11.81
2019-05-17T23:38:20.944Z,11.87
2019-05-17T23:40:49.295Z,11.86
2019-05-17T23:43:17.563Z,11.94
2019-05-17T23:45:45.865Z,11.88
2019-05-17T23:48:14.153Z,11.88
2019-05-17T23:50:42.443Z,11.88
2019-05-17T23:53:10.717Z,11.86
2019-05-17T23:55:39.013Z,11.83
2019-05-17T23:58:07.317Z,11.88
